MSC Ajaccio — 9HA3461 — position and weather

sailwx.info

Track history (hours):
 
Tides and Currents Weather Stations Pressure Air Temp Water Temp Dewpoint Dewpoint Depression Visibility Wind Speed Wind Dir Waves Ship Positions

MSC Ajaccio

Last reported at 2018-Feb-24 02:45 UTC. Time now 2018-Feb-25 20:03 UTC.
Position N 36°23' E 013°42'.

Length 300 m; draft 8.8 m.

Type: Ship (hazmat cat A). MMSI: 229625000.

Date/timePositionNaut miles runAvg speedWind from/ knotsBaromVisibWave heightAir tempDewpointWater temp
2018-Feb-24 02:45N 36°23' E 013°42'312.4
2018-Feb-24 02:30N 36°22' E 013°46'712.4
2018-Feb-24 01:58N 36°19' E 013°53'612.4
2018-Feb-24 01:30N 36°16' E 013°59'612.4
2018-Feb-24 01:00N 36°13' E 014°06'612.1
2018-Feb-24 00:30N 36°10' E 014°13'611.8
2018-Feb-24 00:00N 36°07' E 014°19'611.5
2018-Feb-23 23:30N 36°04' E 014°25'612.1
2018-Feb-23 23:00N 36°01' E 014°31'510.9
2018-Feb-23 22:31N 35°58' E 014°37'611.5
2018-Feb-23 22:00N 35°52' E 014°37'4 7.3
2018-Feb-23 21:28N 35°48' E 014°35'2 3.3
2018-Feb-23 20:56N 35°49' E 014°33'0 0.0
2018-Feb-23 20:26N 35°49' E 014°33'0 0.0
2018-Feb-23 19:56N 35°49' E 014°33'0 0.0
2018-Feb-23 19:26N 35°49' E 014°33'0 0.0
2018-Feb-23 18:59N 35°49' E 014°33'0 0.0
2018-Feb-23 18:26N 35°49' E 014°33'0 0.0
2018-Feb-23 17:05N 35°49' E 014°33'0 0.0
2018-Feb-23 09:56N 35°49' E 014°33'1 1.2
2018-Feb-23 09:30N 35°49' E 014°33'3 6.6
2018-Feb-23 09:00N 35°47' E 014°36'0 0.4
2018-Feb-23 08:30N 35°47' E 014°36'1 1.9
2018-Feb-23 08:00N 35°48' E 014°37'2 3.7
2018-Feb-23 07:30N 35°46' E 014°37'1 1.2
2018-Feb-23 07:00N 35°45' E 014°37'0 0.9
2018-Feb-23 06:30N 35°45' E 014°37'1 2.0
2018-Feb-23 05:59N 35°44' E 014°38'1 1.8
2018-Feb-23 05:30N 35°43' E 014°38'1 1.7
2018-Feb-23 04:57N 35°43' E 014°39'1 3.1
2018-Feb-23 04:30N 35°44' E 014°38'2 5.0
2018-Feb-23 04:00N 35°46' E 014°40'1 2.2
2018-Feb-23 03:30N 35°45' E 014°41'510.9
2018-Feb-23 03:00N 35°45' E 014°47'612.2
2018-Feb-23 02:30N 35°46' E 014°55'510.3
2018-Feb-23 02:00N 35°50' E 014°57'610.6
2018-Feb-23 01:27N 35°56' E 014°57'910.8
2018-Feb-23 00:39N 36°05' E 014°55'210.8
2018-Feb-23 00:26N 36°07' E 014°57'510.7
2018-Feb-23 00:00N 36°11' E 014°60'611.1
2018-Feb-22 23:29N 36°16' E 015°03'511.6
2018-Feb-22 23:00N 36°21' E 015°05'611.4
2018-Feb-22 22:30N 36°27' E 015°08'5011.5
2018-Feb-22 18:10N 37°14' E 015°27'312.8
2018-Feb-22 17:57N 37°17' E 015°27'612.7
2018-Feb-22 17:27N 37°23' E 015°28'612.5
2018-Feb-22 17:00N 37°29' E 015°28'612.1
2018-Feb-22 16:30N 37°35' E 015°29'612.3
2018-Feb-22 16:00N 37°41' E 015°30'612.3
2018-Feb-22 15:30N 37°47' E 015°31'612.5
2018-Feb-22 15:00N 37°53' E 015°31'612.4
2018-Feb-22 14:29N 37°60' E 015°32'511.1
2018-Feb-22 14:00N 38°05' E 015°33'4 7.5
2018-Feb-22 13:30N 38°09' E 015°34'24 4.1
2018-Feb-22 07:35N 38°27' E 015°54'0 0.2
2018-Feb-22 07:29N 38°27' E 015°54'0 0.0
2018-Feb-22 06:59N 38°27' E 015°54'0 0.0
2018-Feb-22 06:29N 38°27' E 015°54'0 0.0
2018-Feb-22 05:59N 38°27' E 015°54'0 0.0
2018-Feb-22 05:29N 38°27' E 015°54'0 0.0
2018-Feb-22 04:59N 38°27' E 015°54'0 0.0
2018-Feb-22 04:29N 38°27' E 015°54'0 0.0
2018-Feb-22 03:59N 38°27' E 015°54'0 0.0
2018-Feb-22 03:17N 38°27' E 015°54'0 0.0
2018-Feb-22 02:59N 38°27' E 015°54'0 0.0
2018-Feb-22 02:23N 38°27' E 015°54'0 0.0
2018-Feb-22 01:59N 38°27' E 015°54'0 0.0
2018-Feb-22 01:29N 38°27' E 015°54'0 0.0
2018-Feb-22 00:59N 38°27' E 015°54'0 0.0
2018-Feb-22 00:29N 38°27' E 015°54'0 0.0
2018-Feb-21 23:59N 38°27' E 015°54'0 0.0
2018-Feb-21 23:29N 38°27' E 015°54'0 0.1
2018-Feb-21 22:59N 38°27' E 015°54'0 0.0
2018-Feb-21 22:17N 38°27' E 015°54'0 0.0
2018-Feb-21 21:59N 38°27' E 015°54'0 0.0
2018-Feb-21 21:23N 38°27' E 015°54'0 0.0
2018-Feb-21 20:59N 38°27' E 015°54'0 0.0
2018-Feb-21 20:29N 38°27' E 015°54'0 0.0
2018-Feb-21 19:59N 38°27' E 015°54'0 0.0
2018-Feb-21 19:29N 38°27' E 015°54'0 0.0
2018-Feb-21 18:59N 38°27' E 015°54'0 0.0
2018-Feb-21 17:35N 38°27' E 015°54'0 0.0
2018-Feb-21 16:23N 38°27' E 015°54'0 0.0
2018-Feb-21 15:47N 38°27' E 015°54'0 0.0
2018-Feb-21 15:23N 38°27' E 015°54'0 0.0
2018-Feb-21 14:59N 38°27' E 015°54'0 0.0
2018-Feb-21 14:29N 38°27' E 015°54'0 0.0
2018-Feb-21 13:59N 38°27' E 015°54'0 0.0
2018-Feb-21 13:29N 38°27' E 015°54'0 0.0
2018-Feb-21 12:59N 38°27' E 015°54'0 0.0
2018-Feb-21 12:29N 38°27' E 015°54'0 0.0
2018-Feb-21 11:59N 38°27' E 015°54'0 0.2
2018-Feb-21 11:30N 38°27' E 015°54'0 0.5
2018-Feb-21 11:00N 38°27' E 015°54'3 5.7
2018-Feb-21 10:29N 38°28' E 015°51'510.1
2018-Feb-21 10:00N 38°31' E 015°46'815.8
2018-Feb-21 09:30N 38°37' E 015°39'815.8
2018-Feb-21 09:00N 38°42' E 015°32'815.7
2018-Feb-21 08:30N 38°48' E 015°24'915.8
2018-Feb-21 07:57N 38°53' E 015°16'3115.8
2018-Feb-21 06:00N 39°14' E 014°47'30516.2
2018-Feb-20 11:08N 42°49' E 009°59'316.2
2018-Feb-20 10:59N 42°52' E 009°60'816.3
2018-Feb-20 10:30N 42°59' E 010°02'816.4
2018-Feb-20 10:00N 43°07' E 010°04'816.3
2018-Feb-20 09:30N 43°15' E 010°06'816.1
2018-Feb-20 09:00N 43°23' E 010°08'815.2
2018-Feb-20 08:30N 43°30' E 010°12'4 8.4
2018-Feb-20 08:00N 43°32' E 010°17'2 4.1
2018-Feb-20 07:30N 43°34' E 010°18'0 0.7
2018-Feb-20 07:00N 43°34' E 010°18'0 0.0
2018-Feb-20 06:30N 43°34' E 010°18'0 0.0
2018-Feb-20 06:00N 43°34' E 010°18'0 0.0
2018-Feb-20 05:30N 43°34' E 010°18'0 0.0
2018-Feb-20 05:00N 43°34' E 010°18'0 0.0
2018-Feb-20 04:27N 43°34' E 010°18'0 0.0
2018-Feb-20 04:00N 43°34' E 010°18'0 0.0
2018-Feb-20 03:30N 43°34' E 010°18'0 0.0
2018-Feb-20 03:00N 43°34' E 010°18'0 0.0
2018-Feb-20 02:30N 43°34' E 010°18'0 0.0
2018-Feb-20 02:00N 43°34' E 010°18'0 0.0
2018-Feb-20 01:30N 43°34' E 010°18'0 0.0
2018-Feb-20 01:00N 43°34' E 010°18'0 0.0
2018-Feb-20 00:30N 43°34' E 010°18'0 0.0
2018-Feb-20 00:00N 43°34' E 010°18'0 0.0
2018-Feb-19 23:30N 43°34' E 010°18'0 0.0
2018-Feb-19 23:00N 43°34' E 010°18'0 0.0
2018-Feb-19 22:30N 43°34' E 010°18'0 0.0
2018-Feb-19 22:00N 43°34' E 010°18'0 0.0
2018-Feb-19 21:24N 43°34' E 010°18'0 0.0
2018-Feb-19 21:00N 43°34' E 010°18'0 0.0
2018-Feb-19 20:30N 43°34' E 010°18'0 0.0
2018-Feb-19 20:00N 43°34' E 010°18'0 0.0
2018-Feb-19 19:30N 43°34' E 010°18'0 0.0
2018-Feb-19 19:00N 43°34' E 010°18'0 0.0
2018-Feb-19 18:30N 43°34' E 010°18'0 0.0
2018-Feb-19 17:57N 43°34' E 010°18'0 0.0
2018-Feb-19 17:30N 43°34' E 010°18'0 0.0
2018-Feb-19 17:00N 43°34' E 010°18'0 0.0
2018-Feb-19 16:30N 43°34' E 010°18'0 0.0
2018-Feb-19 16:00N 43°34' E 010°18'0 0.0
2018-Feb-19 15:30N 43°34' E 010°18'0 0.0
2018-Feb-19 15:00N 43°34' E 010°18'0 0.0
2018-Feb-19 14:18N 43°34' E 010°18'0 0.0
2018-Feb-19 14:00N 43°34' E 010°18'0 0.0
2018-Feb-19 13:30N 43°34' E 010°18'0 0.0
2018-Feb-19 13:00N 43°34' E 010°18'0 0.0
2018-Feb-19 12:30N 43°34' E 010°18'0 0.0
2018-Feb-19 12:00N 43°34' E 010°18'0 0.0
2018-Feb-19 11:30N 43°34' E 010°18'0 0.0
2018-Feb-19 10:59N 43°34' E 010°18'0 0.0
2018-Feb-19 10:29N 43°34' E 010°18'0 0.0
2018-Feb-19 10:00N 43°34' E 010°18'1 1.9
2018-Feb-19 09:30N 43°34' E 010°18'2 3.6
2018-Feb-19 09:00N 43°32' E 010°16'2 3.7
2018-Feb-19 08:30N 43°31' E 010°15'2 3.8
2018-Feb-19 08:00N 43°30' E 010°13'3 6.8
2018-Feb-19 07:30N 43°29' E 010°08'1 1.2
2018-Feb-19 07:00N 43°29' E 010°09'1 1.4
2018-Feb-19 06:30N 43°28' E 010°08'0 0.8
2018-Feb-19 06:00N 43°29' E 010°08'4 8.9
2018-Feb-19 05:30N 43°31' E 010°03'612.1
2018-Feb-19 05:00N 43°33' E 009°55'612.7
2018-Feb-19 04:30N 43°37' E 009°48'613.0
2018-Feb-19 04:00N 43°42' E 009°41'713.3
2018-Feb-19 03:30N 43°46' E 009°34'612.7
2018-Feb-19 03:00N 43°50' E 009°28'612.7
2018-Feb-19 02:30N 43°54' E 009°21'612.4
2018-Feb-19 02:00N 43°58' E 009°14'612.3
2018-Feb-19 01:30N 44°02' E 009°08'612.1
2018-Feb-19 01:00N 44°06' E 009°01'713.0
2018-Feb-19 00:30N 44°10' E 008°54'612.6
2018-Feb-19 00:00N 44°14' E 008°47'612.3
2018-Feb-18 23:30N 44°19' E 008°43'611.4
2018-Feb-18 23:00N 44°25' E 008°44'2 4.3
2018-Feb-18 22:30N 44°25' E 008°47'0 0.0
2018-Feb-18 22:00N 44°25' E 008°47'0 0.1
2018-Feb-18 21:30N 44°25' E 008°47'0 0.0
2018-Feb-18 21:00N 44°25' E 008°47'0 0.0
2018-Feb-18 20:30N 44°25' E 008°47'0 0.0
2018-Feb-18 20:00N 44°25' E 008°47'0 0.0
2018-Feb-18 19:30N 44°25' E 008°47'0 0.0
2018-Feb-18 19:00N 44°25' E 008°47'0 0.0
2018-Feb-18 18:30N 44°25' E 008°47'0 0.0
2018-Feb-18 18:00N 44°25' E 008°47'0 0.0
2018-Feb-18 17:30N 44°25' E 008°47'0 0.0
2018-Feb-18 17:00N 44°25' E 008°47'0 0.0
2018-Feb-18 16:30N 44°25' E 008°47'0 0.0
2018-Feb-18 16:00N 44°25' E 008°47'0 0.0
2018-Feb-18 15:30N 44°25' E 008°47'0 0.0
2018-Feb-18 15:00N 44°25' E 008°47'0 0.0
2018-Feb-18 14:30N 44°25' E 008°47'0 0.0
2018-Feb-18 14:00N 44°25' E 008°47'0 0.0
2018-Feb-18 13:30N 44°25' E 008°47'0 0.0
2018-Feb-18 13:00N 44°25' E 008°47'0 0.1
2018-Feb-18 12:30N 44°25' E 008°47'0 0.1
2018-Feb-18 12:00N 44°25' E 008°47'0 0.0
2018-Feb-18 11:30N 44°25' E 008°47'0 0.0
2018-Feb-18 11:00N 44°25' E 008°47'0 0.0
2018-Feb-18 10:30N 44°25' E 008°47'0 0.0
2018-Feb-18 10:00N 44°25' E 008°47'0 0.0
2018-Feb-18 09:30N 44°25' E 008°47'0 0.0
2018-Feb-18 09:00N 44°25' E 008°47'0 0.0
2018-Feb-18 08:30N 44°25' E 008°47'0 0.0
2018-Feb-18 08:00N 44°25' E 008°47'0 0.0
2018-Feb-18 07:30N 44°25' E 008°47'0 0.0
2018-Feb-18 07:00N 44°25' E 008°47'0 0.0
2018-Feb-18 06:30N 44°25' E 008°47'0 0.0
2018-Feb-18 06:00N 44°25' E 008°47'0 0.0
2018-Feb-18 05:30N 44°25' E 008°47'0 0.0
2018-Feb-18 05:00N 44°25' E 008°47'0 0.0
2018-Feb-18 04:30N 44°25' E 008°47'0 0.0
2018-Feb-18 04:00N 44°25' E 008°47'0 0.0
2018-Feb-18 03:30N 44°25' E 008°47'0 0.0
2018-Feb-18 03:00N 44°25' E 008°47'0 0.0
2018-Feb-18 02:30N 44°25' E 008°47'0 0.0
2018-Feb-18 02:00N 44°25' E 008°47'0 0.0
2018-Feb-18 01:30N 44°25' E 008°47'0 0.0
2018-Feb-18 01:00N 44°25' E 008°47'0 0.0
2018-Feb-18 00:30N 44°25' E 008°47'0 0.0
2018-Feb-18 00:00N 44°25' E 008°47'0 0.0
2018-Feb-17 23:30N 44°25' E 008°47'0 0.0
2018-Feb-17 23:00N 44°25' E 008°47'0 0.0
2018-Feb-17 22:30N 44°25' E 008°47'0 0.0
2018-Feb-17 21:57N 44°25' E 008°47'0 0.0
2018-Feb-17 21:30N 44°25' E 008°47'0 0.0
2018-Feb-17 21:00N 44°25' E 008°47'0 0.0
2018-Feb-17 20:30N 44°25' E 008°47'0 0.0
2018-Feb-17 20:00N 44°25' E 008°47'0 0.1
2018-Feb-17 19:30N 44°25' E 008°47'0 0.0
2018-Feb-17 19:00N 44°25' E 008°47'0 0.0
2018-Feb-17 18:30N 44°25' E 008°47'0 0.0
2018-Feb-17 18:00N 44°25' E 008°47'0 0.0
2018-Feb-17 17:30N 44°25' E 008°47'0 0.0
2018-Feb-17 17:00N 44°25' E 008°47'0 0.0
2018-Feb-17 16:30N 44°25' E 008°47'0 0.0
2018-Feb-17 16:00N 44°25' E 008°47'0 0.0
2018-Feb-17 15:30N 44°25' E 008°47'0 0.0
2018-Feb-17 15:01N 44°25' E 008°47'1 1.3
2018-Feb-17 14:30N 44°25' E 008°46'3 7.0
2018-Feb-17 14:01N 44°22' E 008°43'714.4
2018-Feb-17 13:30N 44°16' E 008°38'917.2
2018-Feb-17 13:00N 44°10' E 008°30'917.6
2018-Feb-17 12:30N 44°03' E 008°22'917.8
2018-Feb-17 12:00N 43°56' E 008°14'3616.9
2018-Feb-17 09:53N 43°31' E 007°39'616.0
2018-Feb-17 09:29N 43°27' E 007°32'816.2
2018-Feb-17 09:00N 43°22' E 007°24'917.2
2018-Feb-17 08:30N 43°16' E 007°15'816.6
2018-Feb-17 08:00N 43°11' E 007°06'20816.1
2018-Feb-16 19:05N 41°32' E 002°59'116.0
2018-Feb-16 19:00N 41°31' E 002°58'816.2
2018-Feb-16 18:30N 41°27' E 002°48'816.0
2018-Feb-16 18:00N 41°24' E 002°38'816.2
2018-Feb-16 17:30N 41°20' E 002°29'816.2
2018-Feb-16 17:00N 41°17' E 002°19'612.1
2018-Feb-16 16:30N 41°17' E 002°11'2 4.8
2018-Feb-16 16:01N 41°19' E 002°10'1 1.4
2018-Feb-16 15:30N 41°19' E 002°09'0 0.0
2018-Feb-16 15:00N 41°19' E 002°09'0 0.0
2018-Feb-16 14:30N 41°19' E 002°09'0 0.0
2018-Feb-16 14:00N 41°18' E 002°09'0 0.0
2018-Feb-16 13:30N 41°19' E 002°09'0 0.0
2018-Feb-16 13:00N 41°19' E 002°09'0 0.0
2018-Feb-16 12:30N 41°19' E 002°09'0 0.0
2018-Feb-16 12:00N 41°19' E 002°09'0 0.1
2018-Feb-16 11:30N 41°18' E 002°09'0 0.0
2018-Feb-16 11:00N 41°19' E 002°09'0 0.1
2018-Feb-16 10:30N 41°18' E 002°09'0 0.0
2018-Feb-16 10:00N 41°19' E 002°09'0 0.0
2018-Feb-16 09:30N 41°19' E 002°09'0 0.0
2018-Feb-16 09:00N 41°19' E 002°09'0 0.0
2018-Feb-16 08:30N 41°19' E 002°09'0 0.0
2018-Feb-16 08:00N 41°19' E 002°09'0 0.0
2018-Feb-16 07:30N 41°18' E 002°09'0 0.0
2018-Feb-16 07:00N 41°19' E 002°09'0 0.0
2018-Feb-16 06:31N 41°18' E 002°09'1 2.3
2018-Feb-16 06:00N 41°18' E 002°10'3 6.6
2018-Feb-16 05:30N 41°15' E 002°12'1 1.5
2018-Feb-16 05:00N 41°15' E 002°11'510.9
2018-Feb-16 04:30N 41°10' E 002°07'612.3
2018-Feb-16 04:00N 41°06' E 002°02'612.4
2018-Feb-16 03:30N 41°01' E 001°56'612.6
2018-Feb-16 03:00N 40°56' E 001°51'612.9
2018-Feb-16 02:30N 40°51' E 001°45'11012.9
2018-Feb-15 17:58N 39°34' E 000°02'714.6
2018-Feb-15 17:31N 39°31' W 000°05'917.3
2018-Feb-15 17:00N 39°27' W 000°15'3 2.6
2018-Feb-15 15:53N 39°26' W 000°19'0 0.0
2018-Feb-15 15:29N 39°26' W 000°19'0 0.0
2018-Feb-15 14:59N 39°26' W 000°19'0 0.0
2018-Feb-15 14:11N 39°26' W 000°19'0 0.0
2018-Feb-15 13:56N 39°26' W 000°19'0 0.0
2018-Feb-15 13:29N 39°26' W 000°19'0 0.0
2018-Feb-15 10:59N 39°26' W 000°19'0 0.0
2018-Feb-15 09:50N 39°26' W 000°19'0 0.0
2018-Feb-15 09:26N 39°26' W 000°19'0 0.0
2018-Feb-15 08:59N 39°26' W 000°19'0 0.0
2018-Feb-15 08:26N 39°26' W 000°19'0 0.0
2018-Feb-15 07:56N 39°26' W 000°19'0 0.0
2018-Feb-15 07:26N 39°26' W 000°19'0 0.0
2018-Feb-15 06:50N 39°26' W 000°19'0 0.0
2018-Feb-15 06:23N 39°26' W 000°19'0 0.0
2018-Feb-15 05:59N 39°26' W 000°19'0 0.0
2018-Feb-15 05:26N 39°26' W 000°19'0 0.0
2018-Feb-15 04:59N 39°26' W 000°19'0 0.0
2018-Feb-15 04:29N 39°26' W 000°19'0 0.0
2018-Feb-15 03:59N 39°26' W 000°19'0 0.0
2018-Feb-15 03:26N 39°26' W 000°19'0 0.0
2018-Feb-15 02:56N 39°26' W 000°19'0 0.0
2018-Feb-15 02:29N 39°26' W 000°19'0 0.0
2018-Feb-15 01:59N 39°26' W 000°19'0 0.0
2018-Feb-15 01:29N 39°26' W 000°19'0 0.0
2018-Feb-15 00:59N 39°26' W 000°19'0 0.0
2018-Feb-15 00:29N 39°26' W 000°19'0 0.0
2018-Feb-14 23:59N 39°26' W 000°19'0 0.0
2018-Feb-14 23:29N 39°26' W 000°19'0 0.0
2018-Feb-14 22:59N 39°26' W 000°19'0 0.0
2018-Feb-14 22:29N 39°26' W 000°19'0 0.0
2018-Feb-14 21:59N 39°26' W 000°19'0 0.0
2018-Feb-14 21:29N 39°26' W 000°19'0 0.0
2018-Feb-14 20:59N 39°26' W 000°19'0 0.0
2018-Feb-14 20:29N 39°26' W 000°19'0 0.0
2018-Feb-14 19:59N 39°26' W 000°19'0 0.0
2018-Feb-14 19:29N 39°26' W 000°19'0 0.0
2018-Feb-14 18:59N 39°26' W 000°19'0 0.0
2018-Feb-14 18:29N 39°26' W 000°19'0 0.0
2018-Feb-14 17:59N 39°26' W 000°19'0 0.0
2018-Feb-14 17:29N 39°26' W 000°19'0 0.0
2018-Feb-14 16:59N 39°26' W 000°19'0 0.0
2018-Feb-14 16:29N 39°26' W 000°19'0 0.0
2018-Feb-14 15:59N 39°26' W 000°19'0 0.0
2018-Feb-14 15:26N 39°26' W 000°19'0 0.0
2018-Feb-14 14:59N 39°26' W 000°19'0 0.0
2018-Feb-14 14:29N 39°26' W 000°19'0 0.0
2018-Feb-14 13:59N 39°26' W 000°19'0 0.0
2018-Feb-14 13:26N 39°26' W 000°19'0 0.0
2018-Feb-14 12:56N 39°26' W 000°19'0 0.0
2018-Feb-14 12:29N 39°26' W 000°19'0 0.0
2018-Feb-14 11:56N 39°26' W 000°19'0 0.1
2018-Feb-14 11:30N 39°26' W 000°19'2 4.9
2018-Feb-14 11:00N 39°25' W 000°16'5 9.0
2018-Feb-14 10:30N 39°24' W 000°11'  
Track history (hours):
 
Tides and Currents Weather Stations Pressure Air Temp Water Temp Dewpoint Dewpoint Depression Visibility Wind Speed Wind Dir Waves Ship Positions

MSC Ajaccio

Last reported at 2018-Feb-24 02:45 UTC. Time now 2018-Feb-25 20:03 UTC.
Position N 36°23' E 013°42'.

Length 300 m; draft 8.8 m.

Type: Ship (hazmat cat A). MMSI: 229625000.

Date/timePositionNaut miles runAvg speedWind from/ knotsBaromVisibWave heightAir tempDewpointWater temp
2018-Feb-24 02:45N 36°23' E 013°42'312.4
2018-Feb-24 02:30N 36°22' E 013°46'712.4
2018-Feb-24 01:58N 36°19' E 013°53'612.4
2018-Feb-24 01:30N 36°16' E 013°59'612.4
2018-Feb-24 01:00N 36°13' E 014°06'612.1
2018-Feb-24 00:30N 36°10' E 014°13'611.8
2018-Feb-24 00:00N 36°07' E 014°19'611.5
2018-Feb-23 23:30N 36°04' E 014°25'612.1
2018-Feb-23 23:00N 36°01' E 014°31'510.9
2018-Feb-23 22:31N 35°58' E 014°37'611.5
2018-Feb-23 22:00N 35°52' E 014°37'4 7.3
2018-Feb-23 21:28N 35°48' E 014°35'2 3.3
2018-Feb-23 20:56N 35°49' E 014°33'0 0.0
2018-Feb-23 20:26N 35°49' E 014°33'0 0.0
2018-Feb-23 19:56N 35°49' E 014°33'0 0.0
2018-Feb-23 19:26N 35°49' E 014°33'0 0.0
2018-Feb-23 18:59N 35°49' E 014°33'0 0.0
2018-Feb-23 18:26N 35°49' E 014°33'0 0.0
2018-Feb-23 17:05N 35°49' E 014°33'0 0.0
2018-Feb-23 09:56N 35°49' E 014°33'1 1.2
2018-Feb-23 09:30N 35°49' E 014°33'3 6.6
2018-Feb-23 09:00N 35°47' E 014°36'0 0.4
2018-Feb-23 08:30N 35°47' E 014°36'1 1.9
2018-Feb-23 08:00N 35°48' E 014°37'2 3.7
2018-Feb-23 07:30N 35°46' E 014°37'1 1.2
2018-Feb-23 07:00N 35°45' E 014°37'0 0.9
2018-Feb-23 06:30N 35°45' E 014°37'1 2.0
2018-Feb-23 05:59N 35°44' E 014°38'1 1.8
2018-Feb-23 05:30N 35°43' E 014°38'1 1.7
2018-Feb-23 04:57N 35°43' E 014°39'1 3.1
2018-Feb-23 04:30N 35°44' E 014°38'2 5.0
2018-Feb-23 04:00N 35°46' E 014°40'1 2.2
2018-Feb-23 03:30N 35°45' E 014°41'510.9
2018-Feb-23 03:00N 35°45' E 014°47'612.2
2018-Feb-23 02:30N 35°46' E 014°55'510.3
2018-Feb-23 02:00N 35°50' E 014°57'610.6
2018-Feb-23 01:27N 35°56' E 014°57'910.8
2018-Feb-23 00:39N 36°05' E 014°55'210.8
2018-Feb-23 00:26N 36°07' E 014°57'510.7
2018-Feb-23 00:00N 36°11' E 014°60'611.1
2018-Feb-22 23:29N 36°16' E 015°03'511.6
2018-Feb-22 23:00N 36°21' E 015°05'611.4
2018-Feb-22 22:30N 36°27' E 015°08'5011.5
2018-Feb-22 18:10N 37°14' E 015°27'312.8
2018-Feb-22 17:57N 37°17' E 015°27'612.7
2018-Feb-22 17:27N 37°23' E 015°28'612.5
2018-Feb-22 17:00N 37°29' E 015°28'612.1
2018-Feb-22 16:30N 37°35' E 015°29'612.3
2018-Feb-22 16:00N 37°41' E 015°30'612.3
2018-Feb-22 15:30N 37°47' E 015°31'612.5
2018-Feb-22 15:00N 37°53' E 015°31'612.4
2018-Feb-22 14:29N 37°60' E 015°32'511.1
2018-Feb-22 14:00N 38°05' E 015°33'4 7.5
2018-Feb-22 13:30N 38°09' E 015°34'24 4.1
2018-Feb-22 07:35N 38°27' E 015°54'0 0.2
2018-Feb-22 07:29N 38°27' E 015°54'0 0.0
2018-Feb-22 06:59N 38°27' E 015°54'0 0.0
2018-Feb-22 06:29N 38°27' E 015°54'0 0.0
2018-Feb-22 05:59N 38°27' E 015°54'0 0.0
2018-Feb-22 05:29N 38°27' E 015°54'0 0.0
2018-Feb-22 04:59N 38°27' E 015°54'0 0.0
2018-Feb-22 04:29N 38°27' E 015°54'0 0.0
2018-Feb-22 03:59N 38°27' E 015°54'0 0.0
2018-Feb-22 03:17N 38°27' E 015°54'0 0.0
2018-Feb-22 02:59N 38°27' E 015°54'0 0.0
2018-Feb-22 02:23N 38°27' E 015°54'0 0.0
2018-Feb-22 01:59N 38°27' E 015°54'0 0.0
2018-Feb-22 01:29N 38°27' E 015°54'0 0.0
2018-Feb-22 00:59N 38°27' E 015°54'0 0.0
2018-Feb-22 00:29N 38°27' E 015°54'0 0.0
2018-Feb-21 23:59N 38°27' E 015°54'0 0.0
2018-Feb-21 23:29N 38°27' E 015°54'0 0.1
2018-Feb-21 22:59N 38°27' E 015°54'0 0.0
2018-Feb-21 22:17N 38°27' E 015°54'0 0.0
2018-Feb-21 21:59N 38°27' E 015°54'0 0.0
2018-Feb-21 21:23N 38°27' E 015°54'0 0.0
2018-Feb-21 20:59N 38°27' E 015°54'0 0.0
2018-Feb-21 20:29N 38°27' E 015°54'0 0.0
2018-Feb-21 19:59N 38°27' E 015°54'0 0.0
2018-Feb-21 19:29N 38°27' E 015°54'0 0.0
2018-Feb-21 18:59N 38°27' E 015°54'0 0.0
2018-Feb-21 17:35N 38°27' E 015°54'0 0.0
2018-Feb-21 16:23N 38°27' E 015°54'0 0.0
2018-Feb-21 15:47N 38°27' E 015°54'0 0.0
2018-Feb-21 15:23N 38°27' E 015°54'0 0.0
2018-Feb-21 14:59N 38°27' E 015°54'0 0.0
2018-Feb-21 14:29N 38°27' E 015°54'0 0.0
2018-Feb-21 13:59N 38°27' E 015°54'0 0.0
2018-Feb-21 13:29N 38°27' E 015°54'0 0.0
2018-Feb-21 12:59N 38°27' E 015°54'0 0.0
2018-Feb-21 12:29N 38°27' E 015°54'0 0.0
2018-Feb-21 11:59N 38°27' E 015°54'0 0.2
2018-Feb-21 11:30N 38°27' E 015°54'0 0.5
2018-Feb-21 11:00N 38°27' E 015°54'3 5.7
2018-Feb-21 10:29N 38°28' E 015°51'510.1
2018-Feb-21 10:00N 38°31' E 015°46'815.8
2018-Feb-21 09:30N 38°37' E 015°39'815.8
2018-Feb-21 09:00N 38°42' E 015°32'815.7
2018-Feb-21 08:30N 38°48' E 015°24'915.8
2018-Feb-21 07:57N 38°53' E 015°16'3115.8
2018-Feb-21 06:00N 39°14' E 014°47'30516.2
2018-Feb-20 11:08N 42°49' E 009°59'316.2
2018-Feb-20 10:59N 42°52' E 009°60'816.3
2018-Feb-20 10:30N 42°59' E 010°02'816.4
2018-Feb-20 10:00N 43°07' E 010°04'816.3
2018-Feb-20 09:30N 43°15' E 010°06'816.1
2018-Feb-20 09:00N 43°23' E 010°08'815.2
2018-Feb-20 08:30N 43°30' E 010°12'4 8.4
2018-Feb-20 08:00N 43°32' E 010°17'2 4.1
2018-Feb-20 07:30N 43°34' E 010°18'0 0.7
2018-Feb-20 07:00N 43°34' E 010°18'0 0.0
2018-Feb-20 06:30N 43°34' E 010°18'0 0.0
2018-Feb-20 06:00N 43°34' E 010°18'0 0.0
2018-Feb-20 05:30N 43°34' E 010°18'0 0.0
2018-Feb-20 05:00N 43°34' E 010°18'0 0.0
2018-Feb-20 04:27N 43°34' E 010°18'0 0.0
2018-Feb-20 04:00N 43°34' E 010°18'0 0.0
2018-Feb-20 03:30N 43°34' E 010°18'0 0.0
2018-Feb-20 03:00N 43°34' E 010°18'0 0.0
2018-Feb-20 02:30N 43°34' E 010°18'0 0.0
2018-Feb-20 02:00N 43°34' E 010°18'0 0.0
2018-Feb-20 01:30N 43°34' E 010°18'0 0.0
2018-Feb-20 01:00N 43°34' E 010°18'0 0.0
2018-Feb-20 00:30N 43°34' E 010°18'0 0.0
2018-Feb-20 00:00N 43°34' E 010°18'0 0.0
2018-Feb-19 23:30N 43°34' E 010°18'0 0.0
2018-Feb-19 23:00N 43°34' E 010°18'0 0.0
2018-Feb-19 22:30N 43°34' E 010°18'0 0.0
2018-Feb-19 22:00N 43°34' E 010°18'0 0.0
2018-Feb-19 21:24N 43°34' E 010°18'0 0.0
2018-Feb-19 21:00N 43°34' E 010°18'0 0.0
2018-Feb-19 20:30N 43°34' E 010°18'0 0.0
2018-Feb-19 20:00N 43°34' E 010°18'0 0.0
2018-Feb-19 19:30N 43°34' E 010°18'0 0.0
2018-Feb-19 19:00N 43°34' E 010°18'0 0.0
2018-Feb-19 18:30N 43°34' E 010°18'0 0.0
2018-Feb-19 17:57N 43°34' E 010°18'0 0.0
2018-Feb-19 17:30N 43°34' E 010°18'0 0.0
2018-Feb-19 17:00N 43°34' E 010°18'0 0.0
2018-Feb-19 16:30N 43°34' E 010°18'0 0.0
2018-Feb-19 16:00N 43°34' E 010°18'0 0.0
2018-Feb-19 15:30N 43°34' E 010°18'0 0.0
2018-Feb-19 15:00N 43°34' E 010°18'0 0.0
2018-Feb-19 14:18N 43°34' E 010°18'0 0.0
2018-Feb-19 14:00N 43°34' E 010°18'0 0.0
2018-Feb-19 13:30N 43°34' E 010°18'0 0.0
2018-Feb-19 13:00N 43°34' E 010°18'0 0.0
2018-Feb-19 12:30N 43°34' E 010°18'0 0.0
2018-Feb-19 12:00N 43°34' E 010°18'0 0.0
2018-Feb-19 11:30N 43°34' E 010°18'0 0.0
2018-Feb-19 10:59N 43°34' E 010°18'0 0.0
2018-Feb-19 10:29N 43°34' E 010°18'0 0.0
2018-Feb-19 10:00N 43°34' E 010°18'1 1.9
2018-Feb-19 09:30N 43°34' E 010°18'2 3.6
2018-Feb-19 09:00N 43°32' E 010°16'2 3.7
2018-Feb-19 08:30N 43°31' E 010°15'2 3.8
2018-Feb-19 08:00N 43°30' E 010°13'3 6.8
2018-Feb-19 07:30N 43°29' E 010°08'1 1.2
2018-Feb-19 07:00N 43°29' E 010°09'1 1.4
2018-Feb-19 06:30N 43°28' E 010°08'0 0.8
2018-Feb-19 06:00N 43°29' E 010°08'4 8.9
2018-Feb-19 05:30N 43°31' E 010°03'612.1
2018-Feb-19 05:00N 43°33' E 009°55'612.7
2018-Feb-19 04:30N 43°37' E 009°48'613.0
2018-Feb-19 04:00N 43°42' E 009°41'713.3
2018-Feb-19 03:30N 43°46' E 009°34'612.7
2018-Feb-19 03:00N 43°50' E 009°28'612.7
2018-Feb-19 02:30N 43°54' E 009°21'612.4
2018-Feb-19 02:00N 43°58' E 009°14'612.3
2018-Feb-19 01:30N 44°02' E 009°08'612.1
2018-Feb-19 01:00N 44°06' E 009°01'713.0
2018-Feb-19 00:30N 44°10' E 008°54'612.6
2018-Feb-19 00:00N 44°14' E 008°47'612.3
2018-Feb-18 23:30N 44°19' E 008°43'611.4
2018-Feb-18 23:00N 44°25' E 008°44'2 4.3
2018-Feb-18 22:30N 44°25' E 008°47'0 0.0
2018-Feb-18 22:00N 44°25' E 008°47'0 0.1
2018-Feb-18 21:30N 44°25' E 008°47'0 0.0
2018-Feb-18 21:00N 44°25' E 008°47'0 0.0
2018-Feb-18 20:30N 44°25' E 008°47'0 0.0
2018-Feb-18 20:00N 44°25' E 008°47'0 0.0
2018-Feb-18 19:30N 44°25' E 008°47'0 0.0
2018-Feb-18 19:00N 44°25' E 008°47'0 0.0
2018-Feb-18 18:30N 44°25' E 008°47'0 0.0
2018-Feb-18 18:00N 44°25' E 008°47'0 0.0
2018-Feb-18 17:30N 44°25' E 008°47'0 0.0
2018-Feb-18 17:00N 44°25' E 008°47'0 0.0
2018-Feb-18 16:30N 44°25' E 008°47'0 0.0
2018-Feb-18 16:00N 44°25' E 008°47'0 0.0
2018-Feb-18 15:30N 44°25' E 008°47'0 0.0
2018-Feb-18 15:00N 44°25' E 008°47'0 0.0
2018-Feb-18 14:30N 44°25' E 008°47'0 0.0
2018-Feb-18 14:00N 44°25' E 008°47'0 0.0
2018-Feb-18 13:30N 44°25' E 008°47'0 0.0
2018-Feb-18 13:00N 44°25' E 008°47'0 0.1
2018-Feb-18 12:30N 44°25' E 008°47'0 0.1
2018-Feb-18 12:00N 44°25' E 008°47'0 0.0
2018-Feb-18 11:30N 44°25' E 008°47'0 0.0
2018-Feb-18 11:00N 44°25' E 008°47'0 0.0
2018-Feb-18 10:30N 44°25' E 008°47'0 0.0
2018-Feb-18 10:00N 44°25' E 008°47'0 0.0
2018-Feb-18 09:30N 44°25' E 008°47'0 0.0
2018-Feb-18 09:00N 44°25' E 008°47'0 0.0
2018-Feb-18 08:30N 44°25' E 008°47'0 0.0
2018-Feb-18 08:00N 44°25' E 008°47'0 0.0
2018-Feb-18 07:30N 44°25' E 008°47'0 0.0
2018-Feb-18 07:00N 44°25' E 008°47'0 0.0
2018-Feb-18 06:30N 44°25' E 008°47'0 0.0
2018-Feb-18 06:00N 44°25' E 008°47'0 0.0
2018-Feb-18 05:30N 44°25' E 008°47'0 0.0
2018-Feb-18 05:00N 44°25' E 008°47'0 0.0
2018-Feb-18 04:30N 44°25' E 008°47'0 0.0
2018-Feb-18 04:00N 44°25' E 008°47'0 0.0
2018-Feb-18 03:30N 44°25' E 008°47'0 0.0
2018-Feb-18 03:00N 44°25' E 008°47'0 0.0
2018-Feb-18 02:30N 44°25' E 008°47'0 0.0
2018-Feb-18 02:00N 44°25' E 008°47'0 0.0
2018-Feb-18 01:30N 44°25' E 008°47'0 0.0
2018-Feb-18 01:00N 44°25' E 008°47'0 0.0
2018-Feb-18 00:30N 44°25' E 008°47'0 0.0
2018-Feb-18 00:00N 44°25' E 008°47'0 0.0
2018-Feb-17 23:30N 44°25' E 008°47'0 0.0
2018-Feb-17 23:00N 44°25' E 008°47'0 0.0
2018-Feb-17 22:30N 44°25' E 008°47'0 0.0
2018-Feb-17 21:57N 44°25' E 008°47'0 0.0
2018-Feb-17 21:30N 44°25' E 008°47'0 0.0
2018-Feb-17 21:00N 44°25' E 008°47'0 0.0
2018-Feb-17 20:30N 44°25' E 008°47'0 0.0
2018-Feb-17 20:00N 44°25' E 008°47'0 0.1
2018-Feb-17 19:30N 44°25' E 008°47'0 0.0
2018-Feb-17 19:00N 44°25' E 008°47'0 0.0
2018-Feb-17 18:30N 44°25' E 008°47'0 0.0
2018-Feb-17 18:00N 44°25' E 008°47'0 0.0
2018-Feb-17 17:30N 44°25' E 008°47'0 0.0
2018-Feb-17 17:00N 44°25' E 008°47'0 0.0
2018-Feb-17 16:30N 44°25' E 008°47'0 0.0
2018-Feb-17 16:00N 44°25' E 008°47'0 0.0
2018-Feb-17 15:30N 44°25' E 008°47'0 0.0
2018-Feb-17 15:01N 44°25' E 008°47'1 1.3
2018-Feb-17 14:30N 44°25' E 008°46'3 7.0
2018-Feb-17 14:01N 44°22' E 008°43'714.4
2018-Feb-17 13:30N 44°16' E 008°38'917.2
2018-Feb-17 13:00N 44°10' E 008°30'917.6
2018-Feb-17 12:30N 44°03' E 008°22'917.8
2018-Feb-17 12:00N 43°56' E 008°14'3616.9
2018-Feb-17 09:53N 43°31' E 007°39'616.0
2018-Feb-17 09:29N 43°27' E 007°32'816.2
2018-Feb-17 09:00N 43°22' E 007°24'917.2
2018-Feb-17 08:30N 43°16' E 007°15'816.6
2018-Feb-17 08:00N 43°11' E 007°06'20816.1
2018-Feb-16 19:05N 41°32' E 002°59'116.0
2018-Feb-16 19:00N 41°31' E 002°58'816.2
2018-Feb-16 18:30N 41°27' E 002°48'816.0
2018-Feb-16 18:00N 41°24' E 002°38'816.2
2018-Feb-16 17:30N 41°20' E 002°29'816.2
2018-Feb-16 17:00N 41°17' E 002°19'612.1
2018-Feb-16 16:30N 41°17' E 002°11'2 4.8
2018-Feb-16 16:01N 41°19' E 002°10'1 1.4
2018-Feb-16 15:30N 41°19' E 002°09'0 0.0
2018-Feb-16 15:00N 41°19' E 002°09'0 0.0
2018-Feb-16 14:30N 41°19' E 002°09'0 0.0
2018-Feb-16 14:00N 41°18' E 002°09'0 0.0
2018-Feb-16 13:30N 41°19' E 002°09'0 0.0
2018-Feb-16 13:00N 41°19' E 002°09'0 0.0
2018-Feb-16 12:30N 41°19' E 002°09'0 0.0
2018-Feb-16 12:00N 41°19' E 002°09'0 0.1
2018-Feb-16 11:30N 41°18' E 002°09'0 0.0
2018-Feb-16 11:00N 41°19' E 002°09'0 0.1
2018-Feb-16 10:30N 41°18' E 002°09'0 0.0
2018-Feb-16 10:00N 41°19' E 002°09'0 0.0
2018-Feb-16 09:30N 41°19' E 002°09'0 0.0
2018-Feb-16 09:00N 41°19' E 002°09'0 0.0
2018-Feb-16 08:30N 41°19' E 002°09'0 0.0
2018-Feb-16 08:00N 41°19' E 002°09'0 0.0
2018-Feb-16 07:30N 41°18' E 002°09'0 0.0
2018-Feb-16 07:00N 41°19' E 002°09'0 0.0
2018-Feb-16 06:31N 41°18' E 002°09'1 2.3
2018-Feb-16 06:00N 41°18' E 002°10'3 6.6
2018-Feb-16 05:30N 41°15' E 002°12'1 1.5
2018-Feb-16 05:00N 41°15' E 002°11'510.9
2018-Feb-16 04:30N 41°10' E 002°07'612.3
2018-Feb-16 04:00N 41°06' E 002°02'612.4
2018-Feb-16 03:30N 41°01' E 001°56'612.6
2018-Feb-16 03:00N 40°56' E 001°51'612.9
2018-Feb-16 02:30N 40°51' E 001°45'11012.9
2018-Feb-15 17:58N 39°34' E 000°02'714.6
2018-Feb-15 17:31N 39°31' W 000°05'917.3
2018-Feb-15 17:00N 39°27' W 000°15'3 2.6
2018-Feb-15 15:53N 39°26' W 000°19'0 0.0
2018-Feb-15 15:29N 39°26' W 000°19'0 0.0
2018-Feb-15 14:59N 39°26' W 000°19'0 0.0
2018-Feb-15 14:11N 39°26' W 000°19'0 0.0
2018-Feb-15 13:56N 39°26' W 000°19'0 0.0
2018-Feb-15 13:29N 39°26' W 000°19'0 0.0
2018-Feb-15 10:59N 39°26' W 000°19'0 0.0
2018-Feb-15 09:50N 39°26' W 000°19'0 0.0
2018-Feb-15 09:26N 39°26' W 000°19'0 0.0
2018-Feb-15 08:59N 39°26' W 000°19'0 0.0
2018-Feb-15 08:26N 39°26' W 000°19'0 0.0
2018-Feb-15 07:56N 39°26' W 000°19'0 0.0
2018-Feb-15 07:26N 39°26' W 000°19'0 0.0
2018-Feb-15 06:50N 39°26' W 000°19'0 0.0
2018-Feb-15 06:23N 39°26' W 000°19'0 0.0
2018-Feb-15 05:59N 39°26' W 000°19'0 0.0
2018-Feb-15 05:26N 39°26' W 000°19'0 0.0
2018-Feb-15 04:59N 39°26' W 000°19'0 0.0
2018-Feb-15 04:29N 39°26' W 000°19'0 0.0
2018-Feb-15 03:59N 39°26' W 000°19'0 0.0
2018-Feb-15 03:26N 39°26' W 000°19'0 0.0
2018-Feb-15 02:56N 39°26' W 000°19'0 0.0
2018-Feb-15 02:29N 39°26' W 000°19'0 0.0
2018-Feb-15 01:59N 39°26' W 000°19'0 0.0
2018-Feb-15 01:29N 39°26' W 000°19'0 0.0
2018-Feb-15 00:59N 39°26' W 000°19'0 0.0
2018-Feb-15 00:29N 39°26' W 000°19'0 0.0
2018-Feb-14 23:59N 39°26' W 000°19'0 0.0
2018-Feb-14 23:29N 39°26' W 000°19'0 0.0
2018-Feb-14 22:59N 39°26' W 000°19'0 0.0
2018-Feb-14 22:29N 39°26' W 000°19'0 0.0
2018-Feb-14 21:59N 39°26' W 000°19'0 0.0
2018-Feb-14 21:29N 39°26' W 000°19'0 0.0
2018-Feb-14 20:59N 39°26' W 000°19'0 0.0
2018-Feb-14 20:29N 39°26' W 000°19'0 0.0
2018-Feb-14 19:59N 39°26' W 000°19'0 0.0
2018-Feb-14 19:29N 39°26' W 000°19'0 0.0
2018-Feb-14 18:59N 39°26' W 000°19'0 0.0
2018-Feb-14 18:29N 39°26' W 000°19'0 0.0
2018-Feb-14 17:59N 39°26' W 000°19'0 0.0
2018-Feb-14 17:29N 39°26' W 000°19'0 0.0
2018-Feb-14 16:59N 39°26' W 000°19'0 0.0
2018-Feb-14 16:29N 39°26' W 000°19'0 0.0
2018-Feb-14 15:59N 39°26' W 000°19'0 0.0
2018-Feb-14 15:26N 39°26' W 000°19'0 0.0
2018-Feb-14 14:59N 39°26' W 000°19'0 0.0
2018-Feb-14 14:29N 39°26' W 000°19'0 0.0
2018-Feb-14 13:59N 39°26' W 000°19'0 0.0
2018-Feb-14 13:26N 39°26' W 000°19'0 0.0
2018-Feb-14 12:56N 39°26' W 000°19'0 0.0
2018-Feb-14 12:29N 39°26' W 000°19'0 0.0
2018-Feb-14 11:56N 39°26' W 000°19'0 0.1
2018-Feb-14 11:30N 39°26' W 000°19'2 4.9
2018-Feb-14 11:00N 39°25' W 000°16'5 9.0
2018-Feb-14 10:30N 39°24' W 000°11'  

Dump ship's entire track history